createdAt,value
2023-01-03T00:00:45.053Z,64.86
2023-01-03T00:03:49.613Z,65.35
2023-01-03T00:06:54.746Z,65.06
2023-01-03T00:09:59.297Z,64.27
2023-01-03T00:13:03.799Z,64.10
2023-01-03T00:16:16.021Z,64.22
2023-01-03T00:19:20.681Z,64.16
2023-01-03T00:22:25.431Z,64.31
2023-01-03T00:25:30.110Z,64.54
2023-01-03T00:28:34.724Z,64.94
2023-01-03T00:31:39.870Z,64.88
2023-01-03T00:34:45.016Z,64.63
2023-01-03T00:37:49.619Z,64.49
2023-01-03T00:40:54.204Z,64.43
2023-01-03T00:43:58.746Z,64.64
2023-01-03T00:47:03.721Z,64.75
2023-01-03T00:50:08.592Z,64.47
2023-01-03T00:53:13.079Z,64.19
2023-01-03T00:56:18.527Z,63.85
2023-01-03T00:59:23.170Z,64.10
2023-01-03T01:02:27.903Z,64.96
2023-01-03T01:05:32.460Z,66.13
2023-01-03T01:08:37.018Z,66.00
2023-01-03T01:11:41.736Z,65.40
2023-01-03T01:14:46.281Z,64.97
2023-01-03T01:17:50.785Z,65.46
2023-01-03T01:20:55.420Z,65.88
2023-01-03T01:24:00.733Z,65.13
2023-01-03T01:27:05.526Z,64.64
2023-01-03T01:30:10.743Z,64.83
2023-01-03T01:33:15.289Z,65.24
2023-01-03T01:36:21.077Z,65.30
2023-01-03T01:39:26.434Z,64.81
2023-01-03T01:42:48.299Z,64.52
2023-01-03T01:45:53.157Z,64.43
2023-01-03T01:48:58.572Z,64.79
2023-01-03T01:52:04.174Z,64.99
2023-01-03T01:55:13.175Z,64.79
2023-01-03T01:58:17.976Z,64.09
2023-01-03T02:01:23.946Z,64.70
2023-01-03T02:04:30.612Z,66.03
2023-01-03T02:07:35.916Z,65.67
2023-01-03T02:10:51.989Z,64.80
2023-01-03T02:14:04.020Z,64.91
2023-01-03T02:17:11.952Z,64.75
2023-01-03T02:20:22.289Z,64.35
2023-01-03T02:23:46.000Z,64.87
2023-01-03T02:26:54.699Z,64.90
2023-01-03T02:30:19.022Z,64.56
2023-01-03T02:33:29.801Z,64.61
2023-01-03T02:36:38.743Z,64.91
2023-01-03T02:39:47.667Z,64.55
2023-01-03T02:43:01.264Z,64.53
2023-01-03T02:46:08.700Z,64.40
2023-01-03T02:49:14.809Z,64.47
2023-01-03T02:52:20.949Z,64.81
2023-01-03T02:55:27.421Z,64.52
2023-01-03T02:58:32.871Z,64.36
2023-01-03T03:01:38.299Z,65.17
2023-01-03T03:04:44.257Z,65.32
2023-01-03T03:07:48.787Z,65.04
2023-01-03T03:11:11.943Z,65.37
2023-01-03T03:14:19.792Z,65.64
2023-01-03T03:17:29.508Z,66.25
2023-01-03T03:20:51.201Z,66.15
2023-01-03T03:24:15.292Z,65.64
2023-01-03T03:27:40.535Z,66.35
2023-01-03T03:30:46.082Z,67.22
2023-01-03T03:33:52.918Z,66.04
2023-01-03T03:37:00.604Z,65.96
2023-01-03T03:40:23.688Z,65.91
2023-01-03T03:43:48.283Z,65.88
2023-01-03T03:46:57.111Z,66.12
2023-01-03T03:50:03.277Z,66.36
2023-01-03T03:53:09.447Z,66.50
2023-01-03T03:56:16.615Z,66.49
2023-01-03T03:59:22.501Z,66.21
2023-01-03T04:02:27.599Z,66.28
2023-01-03T04:05:34.140Z,66.74
2023-01-03T04:08:38.691Z,66.88
2023-01-03T04:11:43.445Z,66.82
2023-01-03T04:14:47.984Z,66.55
2023-01-03T04:17:52.517Z,66.90
2023-01-03T04:20:57.522Z,68.35
2023-01-03T04:24:02.086Z,69.96
2023-01-03T04:27:06.556Z,71.94
2023-01-03T04:30:12.611Z,71.76
2023-01-03T04:33:17.405Z,72.49
2023-01-03T04:36:22.012Z,74.16
2023-01-03T04:39:26.539Z,74.79
2023-01-03T04:42:48.772Z,75.79
2023-01-03T04:45:53.441Z,75.85
2023-01-03T04:48:57.955Z,75.79
2023-01-03T04:52:02.417Z,75.89
2023-01-03T04:55:07.600Z,75.25
2023-01-03T04:58:12.071Z,74.78
2023-01-03T05:01:16.630Z,74.01
2023-01-03T05:04:21.182Z,73.34
2023-01-03T05:07:25.686Z,72.69
2023-01-03T05:10:30.319Z,71.99
2023-01-03T05:13:35.292Z,71.30
2023-01-03T05:16:39.919Z,70.67
2023-01-03T05:19:58.247Z,70.07
2023-01-03T05:23:20.371Z,69.66
2023-01-03T05:26:24.908Z,69.01
2023-01-03T05:29:30.447Z,68.52
2023-01-03T05:32:35.111Z,68.16
2023-01-03T05:35:39.608Z,67.86
2023-01-03T05:38:44.119Z,67.58
2023-01-03T05:42:00.843Z,67.40
2023-01-03T05:45:05.653Z,67.09
2023-01-03T05:48:10.732Z,66.78
2023-01-03T05:51:15.239Z,66.59
2023-01-03T05:54:21.315Z,66.35
2023-01-03T05:57:30.535Z,66.20
2023-01-03T06:00:39.540Z,66.04
2023-01-03T06:03:46.422Z,65.89
2023-01-03T06:06:51.066Z,65.61
2023-01-03T06:09:55.543Z,65.42
2023-01-03T06:13:00.012Z,65.25
2023-01-03T06:16:26.758Z,65.09
2023-01-03T06:19:31.249Z,64.89
2023-01-03T06:22:36.218Z,64.81
2023-01-03T06:25:40.723Z,64.73
2023-01-03T06:28:45.532Z,64.72
2023-01-03T06:31:50.039Z,64.68
2023-01-03T06:34:54.491Z,64.62
2023-01-03T06:37:58.976Z,64.59
2023-01-03T06:41:03.888Z,64.55
2023-01-03T06:44:08.372Z,64.49
2023-01-03T06:47:30.346Z,64.39
2023-01-03T06:50:51.945Z,64.39
2023-01-03T06:53:56.493Z,64.32
2023-01-03T06:57:01.361Z,64.34
2023-01-03T07:00:06.797Z,64.32
2023-01-03T07:03:11.897Z,64.33
2023-01-03T07:06:16.646Z,64.25
2023-01-03T07:09:21.154Z,64.41
2023-01-03T07:12:43.207Z,64.53
2023-01-03T07:15:48.103Z,64.55
2023-01-03T07:18:55.338Z,64.51
2023-01-03T07:22:00.228Z,64.51
2023-01-03T07:25:04.727Z,64.54
2023-01-03T07:28:11.065Z,64.54
2023-01-03T07:31:15.923Z,64.58
2023-01-03T07:34:20.640Z,64.57
2023-01-03T07:37:25.216Z,64.65
2023-01-03T07:40:30.154Z,64.70
2023-01-03T07:43:40.563Z,64.66
2023-01-03T07:46:45.275Z,64.73
2023-01-03T07:49:49.882Z,64.75
2023-01-03T07:52:54.533Z,64.68
2023-01-03T07:56:09.126Z,64.69
2023-01-03T07:59:17.276Z,64.60
2023-01-03T08:02:21.953Z,64.43
2023-01-03T08:05:27.159Z,64.36
2023-01-03T08:08:31.720Z,64.20
2023-01-03T08:11:53.952Z,64.02
2023-01-03T08:14:58.562Z,63.84
2023-01-03T08:18:03.921Z,63.69
2023-01-03T08:21:08.963Z,63.50
2023-01-03T08:24:13.531Z,63.54
2023-01-03T08:27:18.020Z,63.51
2023-01-03T08:30:22.694Z,63.45
2023-01-03T08:33:28.048Z,63.35
2023-01-03T08:36:34.855Z,63.31
2023-01-03T08:39:42.781Z,63.37
2023-01-03T08:42:47.944Z,63.34
2023-01-03T08:45:52.437Z,63.18
2023-01-03T08:48:57.513Z,62.97
2023-01-03T08:52:01.977Z,62.82
2023-01-03T08:55:08.323Z,62.80
2023-01-03T08:58:12.979Z,62.73
2023-01-03T09:01:17.802Z,62.60
2023-01-03T09:04:22.585Z,62.50
2023-01-03T09:07:27.092Z,62.32
2023-01-03T09:10:31.713Z,62.37
2023-01-03T09:13:36.703Z,62.33
2023-01-03T09:16:47.007Z,62.18
2023-01-03T09:19:53.501Z,62.14
2023-01-03T09:22:58.022Z,62.06
2023-01-03T09:26:02.782Z,62.15
2023-01-03T09:29:07.327Z,62.18
2023-01-03T09:32:11.938Z,62.25
2023-01-03T09:35:16.710Z,62.31
2023-01-03T09:38:21.447Z,62.32
2023-01-03T09:41:26.967Z,62.37
2023-01-03T09:44:31.495Z,62.32
2023-01-03T09:47:37.375Z,62.27
2023-01-03T09:51:15.787Z,62.24
2023-01-03T09:54:29.325Z,62.09
2023-01-03T09:57:53.230Z,62.14
2023-01-03T10:01:19.118Z,62.02
2023-01-03T10:04:36.012Z,62.00
2023-01-03T10:07:49.650Z,62.05
2023-01-03T10:11:02.123Z,61.82
2023-01-03T10:14:13.071Z,61.64
2023-01-03T10:17:22.049Z,61.28
2023-01-03T10:20:33.433Z,61.17
2023-01-03T10:23:38.830Z,61.03
2023-01-03T10:26:43.462Z,60.93
2023-01-03T10:29:49.262Z,60.67
2023-01-03T10:33:10.227Z,60.58
2023-01-03T10:36:15.422Z,60.22
2023-01-03T10:39:29.869Z,60.11
2023-01-03T10:42:35.293Z,59.98
2023-01-03T10:45:51.353Z,59.91
2023-01-03T10:49:26.520Z,59.93
2023-01-03T10:52:23.993Z,60.14
2023-01-03T10:55:28.836Z,59.85
2023-01-03T10:58:36.526Z,59.76
2023-01-03T11:01:41.509Z,59.53
2023-01-03T11:04:46.186Z,58.12
2023-01-03T11:07:54.733Z,58.16
2023-01-03T11:10:59.976Z,59.08
2023-01-03T11:14:11.940Z,59.43
2023-01-03T11:17:17.648Z,60.67
2023-01-03T11:20:22.738Z,63.52
2023-01-03T11:23:32.468Z,64.85
2023-01-03T11:26:43.157Z,63.99
2023-01-03T11:30:08.994Z,63.27
2023-01-03T11:33:29.048Z,62.56
2023-01-03T11:36:42.244Z,61.87
2023-01-03T11:39:55.657Z,61.31
2023-01-03T11:43:05.378Z,60.91
2023-01-03T11:46:18.993Z,60.38
2023-01-03T11:49:28.580Z,60.20
2023-01-03T11:52:37.371Z,59.35
2023-01-03T11:55:52.672Z,57.61
2023-01-03T11:59:11.405Z,57.47
2023-01-03T12:02:41.690Z,59.28
2023-01-03T12:05:57.161Z,59.03
2023-01-03T12:09:11.637Z,59.35
2023-01-03T12:12:38.957Z,60.03
2023-01-03T12:15:46.602Z,60.43
2023-01-03T12:18:54.423Z,60.56
2023-01-03T12:22:04.072Z,61.34
2023-01-03T12:25:15.453Z,61.34
2023-01-03T12:28:22.601Z,64.23
2023-01-03T12:31:32.229Z,65.61
2023-01-03T12:34:41.124Z,64.18
2023-01-03T12:37:47.060Z,62.99
2023-01-03T12:40:53.941Z,61.74
2023-01-03T12:44:00.855Z,60.63
2023-01-03T12:47:07.130Z,59.99
2023-01-03T12:50:17.691Z,58.93
2023-01-03T12:53:26.891Z,57.25
2023-01-03T12:56:48.509Z,57.67
2023-01-03T12:59:59.292Z,57.97
2023-01-03T13:03:09.132Z,58.64
2023-01-03T13:06:17.569Z,58.87
2023-01-03T13:09:24.343Z,59.36
2023-01-03T13:12:30.468Z,59.56
2023-01-03T13:15:37.481Z,59.88
2023-01-03T13:18:42.215Z,59.95
2023-01-03T13:22:02.989Z,60.42
2023-01-03T13:25:20.884Z,61.31
2023-01-03T13:28:37.611Z,61.11
2023-01-03T13:31:42.434Z,61.12
2023-01-03T13:35:06.929Z,61.46
2023-01-03T13:38:24.845Z,62.37
2023-01-03T13:41:34.161Z,65.33
2023-01-03T13:44:39.751Z,66.11
2023-01-03T13:47:45.559Z,64.63
2023-01-03T13:51:15.835Z,63.00
2023-01-03T13:54:36.152Z,61.84
2023-01-03T13:57:53.638Z,60.90
2023-01-03T14:01:05.566Z,60.19
2023-01-03T14:04:35.888Z,58.41
2023-01-03T14:07:56.599Z,58.02
2023-01-03T14:11:12.918Z,58.52
2023-01-03T14:14:19.176Z,59.13
2023-01-03T14:17:26.715Z,59.66
2023-01-03T14:20:33.519Z,59.82
2023-01-03T14:24:07.956Z,60.21
2023-01-03T14:27:11.503Z,60.53
2023-01-03T14:30:24.230Z,60.96
2023-01-03T14:33:32.867Z,61.43
2023-01-03T14:36:45.642Z,61.63
2023-01-03T14:39:56.299Z,61.79
2023-01-03T14:43:04.489Z,61.95
2023-01-03T14:46:09.896Z,62.49
2023-01-03T14:49:20.759Z,65.54
2023-01-03T14:52:29.825Z,67.75
2023-01-03T14:55:34.977Z,67.00
2023-01-03T14:58:40.513Z,65.81
2023-01-03T15:01:46.044Z,64.59
2023-01-03T15:04:53.582Z,63.65
2023-01-03T15:08:08.289Z,62.81
2023-01-03T15:11:14.283Z,62.21
2023-01-03T15:14:19.130Z,61.52
2023-01-03T15:17:27.228Z,60.90
2023-01-03T15:20:35.410Z,60.42
2023-01-03T15:23:41.251Z,59.74
2023-01-03T15:26:47.180Z,59.50
2023-01-03T15:29:51.606Z,58.33
2023-01-03T15:32:57.980Z,57.71
2023-01-03T15:36:04.313Z,58.66
2023-01-03T15:39:15.912Z,59.37
2023-01-03T15:42:50.250Z,59.96
2023-01-03T15:46:02.966Z,60.62
2023-01-03T15:49:08.033Z,61.04
2023-01-03T15:52:14.560Z,61.60
2023-01-03T15:55:19.239Z,62.20
2023-01-03T15:58:25.201Z,62.36
2023-01-03T16:01:29.815Z,64.72
2023-01-03T16:04:34.520Z,67.39
2023-01-03T16:07:40.342Z,66.68
2023-01-03T16:10:44.883Z,65.36
2023-01-03T16:13:51.382Z,64.57
2023-01-03T16:16:57.050Z,63.80
2023-01-03T16:20:01.871Z,63.26
2023-01-03T16:23:06.548Z,62.69
2023-01-03T16:26:11.025Z,62.15
2023-01-03T16:29:16.095Z,61.61
2023-01-03T16:32:21.434Z,61.31
2023-01-03T16:35:26.320Z,61.05
2023-01-03T16:38:31.798Z,60.89
2023-01-03T16:41:36.332Z,60.62
2023-01-03T16:44:41.673Z,60.31
2023-01-03T16:47:46.388Z,60.16
2023-01-03T16:50:52.949Z,60.16
2023-01-03T16:53:58.172Z,60.16
2023-01-03T16:57:03.015Z,60.26
2023-01-03T17:00:15.127Z,60.24
2023-01-03T17:03:19.812Z,60.21
2023-01-03T17:06:33.509Z,60.15
2023-01-03T17:09:41.811Z,60.08
2023-01-03T17:12:46.360Z,60.00
2023-01-03T17:15:51.067Z,60.06
2023-01-03T17:18:55.966Z,60.03
2023-01-03T17:22:00.525Z,60.03
2023-01-03T17:25:05.391Z,59.95
2023-01-03T17:28:11.681Z,60.07
2023-01-03T17:31:17.683Z,60.14
2023-01-03T17:34:24.468Z,60.13
2023-01-03T17:37:29.042Z,60.12
2023-01-03T17:40:34.626Z,60.13
2023-01-03T17:43:39.240Z,60.10
2023-01-03T17:47:01.423Z,60.14
2023-01-03T17:50:06.312Z,60.06
2023-01-03T17:53:11.798Z,60.09
2023-01-03T17:56:17.928Z,60.18
2023-01-03T17:59:22.447Z,60.21
2023-01-03T18:02:27.389Z,60.15
2023-01-03T18:05:32.510Z,60.11
2023-01-03T18:08:37.107Z,60.11
2023-01-03T18:11:41.643Z,60.23
2023-01-03T18:14:46.446Z,60.23
2023-01-03T18:17:51.256Z,60.15
2023-01-03T18:20:56.163Z,60.03
2023-01-03T18:24:02.599Z,59.66
2023-01-03T18:27:07.202Z,59.65
2023-01-03T18:30:14.510Z,59.79
2023-01-03T18:33:19.018Z,59.86
2023-01-03T18:36:28.000Z,60.13
2023-01-03T18:39:32.929Z,60.29
2023-01-03T18:42:54.719Z,60.14
2023-01-03T18:45:59.372Z,60.03
2023-01-03T18:49:04.075Z,60.19
2023-01-03T18:52:14.423Z,60.31
2023-01-03T18:55:21.297Z,60.25
2023-01-03T18:58:31.765Z,60.16
2023-01-03T19:01:36.458Z,59.94
2023-01-03T19:04:42.933Z,59.91
2023-01-03T19:07:52.905Z,59.82
2023-01-03T19:10:58.780Z,59.78
2023-01-03T19:14:04.223Z,59.86
2023-01-03T19:17:12.418Z,60.26
2023-01-03T19:20:19.540Z,60.51
2023-01-03T19:23:28.219Z,60.07
2023-01-03T19:26:34.787Z,59.98
2023-01-03T19:29:39.712Z,59.97
2023-01-03T19:32:45.049Z,60.16
2023-01-03T19:35:49.826Z,60.34
2023-01-03T19:38:54.425Z,60.55
2023-01-03T19:42:17.856Z,60.66
2023-01-03T19:45:27.623Z,60.63
2023-01-03T19:48:32.217Z,60.60
2023-01-03T19:51:38.443Z,60.53
2023-01-03T19:54:43.092Z,60.63
2023-01-03T19:57:49.090Z,60.81
2023-01-03T20:00:54.370Z,60.89
2023-01-03T20:03:59.406Z,61.08
2023-01-03T20:07:04.097Z,61.03
2023-01-03T20:10:10.596Z,61.23
2023-01-03T20:13:19.054Z,61.25
2023-01-03T20:16:23.981Z,61.11
2023-01-03T20:19:30.794Z,61.14
2023-01-03T20:23:03.786Z,61.28
2023-01-03T20:25:59.877Z,61.60
2023-01-03T20:29:05.505Z,61.56
2023-01-03T20:32:10.129Z,61.48
2023-01-03T20:36:07.089Z,61.46
2023-01-03T20:38:44.840Z,61.47
2023-01-03T20:41:49.343Z,61.87
2023-01-03T20:44:53.879Z,61.96
2023-01-03T20:47:58.750Z,62.13
2023-01-03T20:51:03.214Z,62.15
2023-01-03T20:54:07.957Z,62.17
2023-01-03T20:57:16.354Z,62.25
2023-01-03T21:00:23.106Z,62.23
2023-01-03T21:03:27.730Z,62.35
2023-01-03T21:06:34.489Z,62.71
2023-01-03T21:09:38.967Z,62.65
2023-01-03T21:12:43.626Z,62.71
2023-01-03T21:15:48.672Z,62.63
2023-01-03T21:18:53.301Z,62.59
2023-01-03T21:21:59.378Z,62.55
2023-01-03T21:25:03.890Z,62.72
2023-01-03T21:28:08.407Z,62.94
2023-01-03T21:31:17.995Z,63.00
2023-01-03T21:34:22.681Z,63.10
2023-01-03T21:37:27.227Z,63.20
2023-01-03T21:40:32.611Z,63.18
2023-01-03T21:43:37.198Z,63.06
2023-01-03T21:46:43.297Z,63.01
2023-01-03T21:49:47.790Z,63.06
2023-01-03T21:52:52.314Z,62.89
2023-01-03T21:55:56.862Z,62.82
2023-01-03T21:59:01.398Z,62.98
2023-01-03T22:02:31.954Z,63.22
2023-01-03T22:05:36.615Z,62.97
2023-01-03T22:08:41.234Z,63.25
2023-01-03T22:11:45.796Z,63.03
2023-01-03T22:14:50.393Z,63.04
2023-01-03T22:17:55.391Z,63.14
2023-01-03T22:21:02.440Z,63.06
2023-01-03T22:24:07.702Z,62.64
2023-01-03T22:27:12.277Z,62.57
2023-01-03T22:30:17.408Z,62.82
2023-01-03T22:33:21.935Z,63.21
2023-01-03T22:36:26.489Z,63.40
2023-01-03T22:39:31.034Z,63.34
2023-01-03T22:42:35.723Z,63.29
2023-01-03T22:45:41.196Z,63.40
2023-01-03T22:48:46.111Z,63.30
2023-01-03T22:51:50.616Z,63.29
2023-01-03T22:54:55.065Z,63.23
2023-01-03T22:57:59.614Z,63.42
2023-01-03T23:01:08.219Z,63.46
2023-01-03T23:04:13.064Z,63.43
2023-01-03T23:07:17.788Z,63.42
2023-01-03T23:10:22.258Z,63.43
2023-01-03T23:13:26.954Z,63.46
2023-01-03T23:16:32.444Z,63.44
2023-01-03T23:19:37.195Z,63.48
2023-01-03T23:22:43.893Z,63.38
2023-01-03T23:25:48.396Z,63.38
2023-01-03T23:28:54.909Z,63.41
2023-01-03T23:31:59.517Z,63.34
2023-01-03T23:35:04.108Z,63.32
2023-01-03T23:38:08.631Z,63.26
2023-01-03T23:41:13.289Z,63.33
2023-01-03T23:44:18.804Z,63.29
2023-01-03T23:47:23.452Z,63.30
2023-01-03T23:50:27.998Z,63.22
2023-01-03T23:53:32.497Z,63.34
2023-01-03T23:56:37.036Z,63.34
2023-01-03T23:59:42.397Z,63.38
